Accueil
METAR-TAF:

METAR-TAF

Aéroports :

Stanly County Airport

Albemarle, Caroline du Nord, États-Unis

latitude: 35-25-00N, longitude: 080-09-03W, altitude: 186 m

Observation

Le bulletin a été fait il y a 21 minutes, à 18:35 UTC
Vent 7 kt de ouest/nord-ouest
Température 30°C
Humidité 62%
Pression 1013 hPa
Visibilité: 16.1 km
Nuages épars à une hauteur de 4400 ft
Nuages fragmentés à une hauteur de 5000 ft
Nuages fragmentés à une hauteur de 6500 ft
orage

METAR: KVUJ 101835Z AUTO 29007KT 10SM TS SCT044 BKN050 BKN065 30/22 A2992 RMK AO2 LTG DSNT W AND NW T02970220

Heure: 14:56 (18:56 UTC)


TAF: absent

Observations et prévisions météorologiques de plus de 4000 aéroports (messages METAR et TAF).

Les stations disponibles sont représentées par des disques jaunes et rouges sur la carte.

Passer la souris dessus pour voir le nom de la station.

Cliquer dessus pour voir les observations et prévisions météorologiques.

Pour changer de carte: cliquez sur les boutons verts avec une croix noire pour zoomer, sur le bouton vert avec un tiret pour effectuer un zoom arrière, ou sur les flèches vertes pour les cartes adjacentes.


METAR-TAF: